createdAt,value
2022-09-30T00:00:09.744Z,993.52
2022-09-30T00:01:09.728Z,993.55
2022-09-30T00:02:09.744Z,993.54
2022-09-30T00:03:09.770Z,993.55
2022-09-30T00:04:09.678Z,993.59
2022-09-30T00:05:09.655Z,993.58
2022-09-30T00:06:09.678Z,993.60
2022-09-30T00:07:09.625Z,993.59
2022-09-30T00:08:09.649Z,993.60
2022-09-30T00:09:09.666Z,993.61
2022-09-30T00:10:09.638Z,993.60
2022-09-30T00:11:09.596Z,993.62
2022-09-30T00:12:09.578Z,993.67
2022-09-30T00:13:09.574Z,993.65
2022-09-30T00:14:09.565Z,993.66
2022-09-30T00:15:09.521Z,993.67
2022-09-30T00:16:09.837Z,993.68
2022-09-30T00:17:09.496Z,993.67
2022-09-30T00:18:09.486Z,993.65
2022-09-30T00:19:09.464Z,993.69
2022-09-30T00:20:09.435Z,993.68
2022-09-30T00:21:09.457Z,993.65
2022-09-30T00:22:09.417Z,993.63
2022-09-30T00:23:09.422Z,993.65
2022-09-30T00:24:09.416Z,993.66
2022-09-30T00:25:09.387Z,993.64
2022-09-30T00:26:09.405Z,993.66
2022-09-30T00:27:09.345Z,993.64
2022-09-30T00:28:09.345Z,993.68
2022-09-30T00:29:09.335Z,993.68
2022-09-30T00:30:09.338Z,993.67
2022-09-30T00:31:09.365Z,993.67
2022-09-30T00:32:09.293Z,993.64
2022-09-30T00:33:09.303Z,993.65
2022-09-30T00:34:09.528Z,993.65
2022-09-30T00:35:09.255Z,993.61
2022-09-30T00:36:09.265Z,993.63
2022-09-30T00:37:09.227Z,993.63
2022-09-30T00:38:09.216Z,993.65
2022-09-30T00:39:09.237Z,993.66
2022-09-30T00:40:09.177Z,993.67
2022-09-30T00:41:09.203Z,993.66
2022-09-30T00:42:09.159Z,993.68
2022-09-30T00:43:09.159Z,993.68
2022-09-30T00:44:09.235Z,993.68
2022-09-30T00:45:09.131Z,993.75
2022-09-30T00:46:09.105Z,993.75
2022-09-30T00:47:09.156Z,993.75
2022-09-30T00:48:09.073Z,993.76
2022-09-30T00:49:09.054Z,993.80
2022-09-30T00:50:09.055Z,993.79
2022-09-30T00:51:09.049Z,993.79
2022-09-30T00:52:09.025Z,993.79
2022-09-30T00:53:09.016Z,993.80
2022-09-30T00:54:08.985Z,993.80
2022-09-30T00:55:08.975Z,993.86
2022-09-30T00:56:08.980Z,993.86
2022-09-30T00:57:08.974Z,993.90
2022-09-30T00:58:08.956Z,993.88
2022-09-30T00:59:08.944Z,993.88
2022-09-30T01:00:08.915Z,993.91
2022-09-30T01:01:08.959Z,993.90
2022-09-30T01:02:08.958Z,993.89
2022-09-30T01:03:08.885Z,993.87
2022-09-30T01:04:08.866Z,993.88
2022-09-30T01:05:08.855Z,993.92
2022-09-30T01:06:08.837Z,993.90
2022-09-30T01:07:08.846Z,993.90
2022-09-30T01:08:08.828Z,993.92
2022-09-30T01:09:08.826Z,993.89
2022-09-30T01:10:08.802Z,993.92
2022-09-30T01:11:08.773Z,993.92
2022-09-30T01:12:08.775Z,993.92
2022-09-30T01:13:08.745Z,993.93
2022-09-30T01:14:08.715Z,993.96
2022-09-30T01:15:08.715Z,993.93
2022-09-30T01:16:08.764Z,993.94
2022-09-30T01:17:08.715Z,993.94
2022-09-30T01:18:08.714Z,993.96
2022-09-30T01:19:08.706Z,993.93
2022-09-30T01:20:08.691Z,993.95
2022-09-30T01:21:08.675Z,993.91
2022-09-30T01:22:08.646Z,993.92
2022-09-30T01:23:08.624Z,993.87
2022-09-30T01:24:08.604Z,993.90
2022-09-30T01:25:08.614Z,993.88
2022-09-30T01:26:08.566Z,993.89
2022-09-30T01:27:08.585Z,993.94
2022-09-30T01:28:08.576Z,993.92
2022-09-30T01:29:08.556Z,993.94
2022-09-30T01:30:08.543Z,993.95
2022-09-30T01:31:08.559Z,993.95
2022-09-30T01:32:08.512Z,993.99
2022-09-30T01:33:08.569Z,994.02
2022-09-30T01:34:08.505Z,994.00
2022-09-30T01:35:08.471Z,994.04
2022-09-30T01:36:08.435Z,994.00
2022-09-30T01:37:08.434Z,994.03
2022-09-30T01:38:08.425Z,994.05
2022-09-30T01:39:08.406Z,994.06
2022-09-30T01:40:08.396Z,994.08
2022-09-30T01:41:08.385Z,994.07
2022-09-30T01:42:08.356Z,994.06
2022-09-30T01:43:08.376Z,994.04
2022-09-30T01:44:08.346Z,994.06
2022-09-30T01:45:08.334Z,994.05
2022-09-30T01:46:08.305Z,994.08
2022-09-30T01:47:08.287Z,994.07
2022-09-30T01:48:08.295Z,994.06
2022-09-30T01:49:08.277Z,994.07
2022-09-30T01:50:08.248Z,994.09
2022-09-30T01:51:08.246Z,994.06
2022-09-30T01:52:08.226Z,994.06
2022-09-30T01:53:08.252Z,994.06
2022-09-30T01:54:08.225Z,994.10
2022-09-30T01:55:08.203Z,994.09
2022-09-30T01:56:08.195Z,994.09
2022-09-30T01:57:08.164Z,994.09
2022-09-30T01:58:08.162Z,994.09
2022-09-30T01:59:08.143Z,994.08
2022-09-30T02:00:08.131Z,994.11
2022-09-30T02:01:08.171Z,994.08
2022-09-30T02:02:08.128Z,994.10
2022-09-30T02:03:08.104Z,994.10
2022-09-30T02:04:08.095Z,994.08
2022-09-30T02:05:08.065Z,994.09
2022-09-30T02:06:08.035Z,994.09
2022-09-30T02:07:08.032Z,994.09
2022-09-30T02:08:08.024Z,994.10
2022-09-30T02:09:08.066Z,994.09
2022-09-30T02:10:07.991Z,994.12
2022-09-30T02:11:08.021Z,994.14
2022-09-30T02:12:07.955Z,994.17
2022-09-30T02:13:07.965Z,994.13
2022-09-30T02:14:07.936Z,994.14
2022-09-30T02:15:07.924Z,994.17
2022-09-30T02:16:07.914Z,994.16
2022-09-30T02:17:07.903Z,994.12
2022-09-30T02:18:07.885Z,994.13
2022-09-30T02:19:07.874Z,994.14
2022-09-30T02:20:07.852Z,994.15
2022-09-30T02:21:07.842Z,994.12
2022-09-30T02:22:07.834Z,994.15
2022-09-30T02:23:07.834Z,994.16
2022-09-30T02:24:07.808Z,994.18
2022-09-30T02:25:07.774Z,994.18
2022-09-30T02:26:07.764Z,994.18
2022-09-30T02:27:07.761Z,994.22
2022-09-30T02:28:07.761Z,994.21
2022-09-30T02:29:07.744Z,994.23
2022-09-30T02:30:07.715Z,994.22
2022-09-30T02:31:07.744Z,994.25
2022-09-30T02:32:07.687Z,994.25
2022-09-30T02:33:07.705Z,994.23
2022-09-30T02:34:07.686Z,994.25
2022-09-30T02:35:07.660Z,994.27
2022-09-30T02:36:07.644Z,994.27
2022-09-30T02:37:07.634Z,994.24
2022-09-30T02:38:07.643Z,994.30
2022-09-30T02:39:07.728Z,994.29
2022-09-30T02:40:07.723Z,994.29
2022-09-30T02:41:07.701Z,994.30
2022-09-30T02:42:07.603Z,994.32
2022-09-30T02:43:07.665Z,994.34
2022-09-30T02:44:07.750Z,994.34
2022-09-30T02:45:07.633Z,994.34
2022-09-30T02:46:07.504Z,994.28
2022-09-30T02:47:07.490Z,994.30
2022-09-30T02:48:07.473Z,994.27
2022-09-30T02:49:07.483Z,994.24
2022-09-30T02:50:07.445Z,994.23
2022-09-30T02:51:07.441Z,994.23
2022-09-30T02:52:07.423Z,994.20
2022-09-30T02:53:07.411Z,994.22
2022-09-30T02:54:07.442Z,994.18
2022-09-30T02:55:07.395Z,994.21
2022-09-30T02:56:07.372Z,994.22
2022-09-30T02:57:07.351Z,994.23
2022-09-30T02:58:07.334Z,994.24
2022-09-30T02:59:07.354Z,994.25
2022-09-30T03:00:12.557Z,994.28
2022-09-30T03:01:08.391Z,994.28
2022-09-30T03:02:07.320Z,994.26
2022-09-30T03:03:07.281Z,994.30
2022-09-30T03:04:07.283Z,994.28
2022-09-30T03:05:07.253Z,994.36
2022-09-30T03:06:07.231Z,994.41
2022-09-30T03:07:07.224Z,994.44
2022-09-30T03:08:07.205Z,994.47
2022-09-30T03:09:07.249Z,994.51
2022-09-30T03:10:07.174Z,994.48
2022-09-30T03:11:07.171Z,994.54
2022-09-30T03:12:07.163Z,994.55
2022-09-30T03:13:07.142Z,994.59
2022-09-30T03:14:07.155Z,994.53
2022-09-30T03:15:07.122Z,994.54
2022-09-30T03:16:09.737Z,994.54
2022-09-30T03:17:07.122Z,994.54
2022-09-30T03:18:07.093Z,994.53
2022-09-30T03:19:07.153Z,994.54
2022-09-30T03:20:07.070Z,994.52
2022-09-30T03:21:07.105Z,994.55
2022-09-30T03:22:07.042Z,994.53
2022-09-30T03:23:07.013Z,994.55
2022-09-30T03:24:07.012Z,994.58
2022-09-30T03:25:07.202Z,994.59
2022-09-30T03:26:06.965Z,994.56
2022-09-30T03:27:06.963Z,994.57
2022-09-30T03:28:06.940Z,994.57
2022-09-30T03:29:06.933Z,994.57
2022-09-30T03:30:06.935Z,994.56
2022-09-30T03:31:06.940Z,994.55
2022-09-30T03:32:06.893Z,994.60
2022-09-30T03:33:06.882Z,994.61
2022-09-30T03:34:06.853Z,994.66
2022-09-30T03:35:06.873Z,994.67
2022-09-30T03:36:06.830Z,994.68
2022-09-30T03:37:06.822Z,994.66
2022-09-30T03:38:06.809Z,994.64
2022-09-30T03:39:06.785Z,994.65
2022-09-30T03:40:06.792Z,994.67
2022-09-30T03:41:06.793Z,994.68
2022-09-30T03:42:06.762Z,994.72
2022-09-30T03:43:06.732Z,994.70
2022-09-30T03:44:06.740Z,994.71
2022-09-30T03:45:06.733Z,994.76
2022-09-30T03:46:06.702Z,994.81
2022-09-30T03:47:06.691Z,994.79
2022-09-30T03:48:06.681Z,994.85
2022-09-30T03:49:06.677Z,994.89
2022-09-30T03:50:06.673Z,994.88
2022-09-30T03:51:06.622Z,994.92
2022-09-30T03:52:06.624Z,994.94
2022-09-30T03:53:06.608Z,994.95
2022-09-30T03:54:06.611Z,994.97
2022-09-30T03:55:06.626Z,994.99
2022-09-30T03:56:06.585Z,995.00
2022-09-30T03:57:06.540Z,995.00
2022-09-30T03:58:06.541Z,995.04
2022-09-30T03:59:06.530Z,995.06
2022-09-30T04:00:06.564Z,995.04
2022-09-30T04:01:06.633Z,995.04
2022-09-30T04:02:06.557Z,995.01
2022-09-30T04:03:06.476Z,995.01
2022-09-30T04:04:06.473Z,995.02
2022-09-30T04:05:06.441Z,995.07
2022-09-30T04:06:06.451Z,995.03
2022-09-30T04:07:06.420Z,995.05
2022-09-30T04:08:06.411Z,995.06
2022-09-30T04:09:06.429Z,995.10
2022-09-30T04:10:06.383Z,995.09
2022-09-30T04:11:06.380Z,995.12
2022-09-30T04:12:06.376Z,995.12
2022-09-30T04:13:06.339Z,995.09
2022-09-30T04:14:06.341Z,995.16
2022-09-30T04:15:06.311Z,995.16
2022-09-30T04:16:06.397Z,995.16
2022-09-30T04:17:06.280Z,995.17
2022-09-30T04:18:06.301Z,995.22
2022-09-30T04:19:06.256Z,995.18
2022-09-30T04:20:06.249Z,995.21
2022-09-30T04:21:06.232Z,995.19
2022-09-30T04:22:06.220Z,995.18
2022-09-30T04:23:06.191Z,995.17
2022-09-30T04:24:06.212Z,995.19
2022-09-30T04:25:06.178Z,995.21
2022-09-30T04:26:06.171Z,995.19
2022-09-30T04:27:06.150Z,995.20
2022-09-30T04:28:06.142Z,995.19
2022-09-30T04:29:06.122Z,995.17
2022-09-30T04:30:06.102Z,995.17
2022-09-30T04:31:06.166Z,995.19
2022-09-30T04:32:06.091Z,995.15
2022-09-30T04:33:06.121Z,995.19
2022-09-30T04:34:06.081Z,995.19
2022-09-30T04:35:06.103Z,995.16
2022-09-30T04:36:06.050Z,995.16
2022-09-30T04:37:10.636Z,995.15
2022-09-30T04:38:06.021Z,995.17
2022-09-30T04:39:06.002Z,995.20
2022-09-30T04:40:05.982Z,995.20
2022-09-30T04:41:05.990Z,995.23
2022-09-30T04:42:06.016Z,995.22
2022-09-30T04:43:05.956Z,995.25
2022-09-30T04:44:05.943Z,995.25
2022-09-30T04:45:05.909Z,995.27
2022-09-30T04:46:06.062Z,995.28
2022-09-30T04:47:05.884Z,995.31
2022-09-30T04:48:05.869Z,995.31
2022-09-30T04:49:09.104Z,995.31
2022-09-30T04:50:05.854Z,995.28
2022-09-30T04:51:05.880Z,995.32
2022-09-30T04:52:05.865Z,995.31
2022-09-30T04:53:05.791Z,995.29
2022-09-30T04:54:05.820Z,995.26
2022-09-30T04:55:05.781Z,995.31
2022-09-30T04:56:05.782Z,995.29
2022-09-30T04:57:05.749Z,995.32
2022-09-30T04:58:05.761Z,995.32
2022-09-30T04:59:05.751Z,995.34
2022-09-30T05:00:05.733Z,995.38
2022-09-30T05:01:05.777Z,995.41
2022-09-30T05:02:05.765Z,995.40
2022-09-30T05:03:05.671Z,995.44
2022-09-30T05:04:05.670Z,995.45
2022-09-30T05:05:05.703Z,995.43
2022-09-30T05:06:05.670Z,995.45
2022-09-30T05:07:05.619Z,995.45
2022-09-30T05:08:05.614Z,995.45
2022-09-30T05:09:05.709Z,995.48
2022-09-30T05:10:05.585Z,995.48
2022-09-30T05:11:05.612Z,995.49
2022-09-30T05:12:05.561Z,995.55
2022-09-30T05:13:05.562Z,995.53
2022-09-30T05:14:05.623Z,995.57
2022-09-30T05:15:05.529Z,995.58
2022-09-30T05:16:05.576Z,995.63
2022-09-30T05:17:05.480Z,995.62
2022-09-30T05:18:05.548Z,995.67
2022-09-30T05:19:05.459Z,995.67
2022-09-30T05:20:05.456Z,995.68
2022-09-30T05:21:05.428Z,995.69
2022-09-30T05:22:05.460Z,995.69
2022-09-30T05:23:05.430Z,995.72
2022-09-30T05:24:05.452Z,995.74
2022-09-30T05:25:05.392Z,995.74
2022-09-30T05:26:09.710Z,995.75
2022-09-30T05:27:06.375Z,995.72
2022-09-30T05:28:05.350Z,995.74
2022-09-30T05:29:05.350Z,995.73
2022-09-30T05:30:05.342Z,995.77
2022-09-30T05:31:05.380Z,995.77
2022-09-30T05:32:05.313Z,995.81
2022-09-30T05:33:05.269Z,995.79
2022-09-30T05:34:05.267Z,995.79
2022-09-30T05:35:05.260Z,995.86
2022-09-30T05:36:05.229Z,995.81
2022-09-30T05:37:05.241Z,995.78
2022-09-30T05:38:05.189Z,995.81
2022-09-30T05:39:05.198Z,995.84
2022-09-30T05:40:05.188Z,995.81
2022-09-30T05:41:05.169Z,995.84
2022-09-30T05:42:05.210Z,995.82
2022-09-30T05:43:05.141Z,995.91
2022-09-30T05:44:05.141Z,995.91
2022-09-30T05:45:05.099Z,995.95
2022-09-30T05:46:05.098Z,995.98
2022-09-30T05:47:05.132Z,996.01
2022-09-30T05:48:05.077Z,996.01
2022-09-30T05:49:05.069Z,996.10
2022-09-30T05:50:05.051Z,996.15
2022-09-30T05:51:05.041Z,996.16
2022-09-30T05:52:05.029Z,996.19
2022-09-30T05:53:05.041Z,996.20
2022-09-30T05:54:05.013Z,996.21
2022-09-30T05:55:04.999Z,996.23
2022-09-30T05:56:05.010Z,996.25
2022-09-30T05:57:04.959Z,996.24
2022-09-30T05:58:05.211Z,996.24
2022-09-30T05:59:04.944Z,996.25
2022-09-30T06:00:04.931Z,996.25
2022-09-30T06:01:10.655Z,996.25
2022-09-30T06:02:06.071Z,996.23
2022-09-30T06:03:04.962Z,996.27
2022-09-30T06:04:04.868Z,996.25
2022-09-30T06:05:04.848Z,996.25
2022-09-30T06:06:04.843Z,996.27
2022-09-30T06:07:09.584Z,996.35
2022-09-30T06:08:05.830Z,996.31
2022-09-30T06:09:04.874Z,996.31
2022-09-30T06:10:04.800Z,996.35
2022-09-30T06:11:04.782Z,996.34
2022-09-30T06:12:04.759Z,996.35
2022-09-30T06:13:04.758Z,996.36
2022-09-30T06:14:04.730Z,996.36
2022-09-30T06:15:04.719Z,996.37
2022-09-30T06:16:04.802Z,996.37
2022-09-30T06:17:04.697Z,996.36
2022-09-30T06:18:04.708Z,996.35
2022-09-30T06:19:04.677Z,996.36
2022-09-30T06:20:04.786Z,996.36
2022-09-30T06:21:04.827Z,996.36
2022-09-30T06:22:04.629Z,996.35
2022-09-30T06:23:04.648Z,996.36
2022-09-30T06:24:04.624Z,996.41
2022-09-30T06:25:04.628Z,996.43
2022-09-30T06:26:04.580Z,996.43
2022-09-30T06:27:04.579Z,996.40
2022-09-30T06:28:04.578Z,996.41
2022-09-30T06:29:04.546Z,996.48
2022-09-30T06:30:04.519Z,996.39
2022-09-30T06:31:04.497Z,996.44
2022-09-30T06:32:04.567Z,996.44
2022-09-30T06:33:04.566Z,996.46
2022-09-30T06:34:04.481Z,996.49
2022-09-30T06:35:04.459Z,996.49
2022-09-30T06:36:04.503Z,996.51
2022-09-30T06:37:04.428Z,996.53
2022-09-30T06:38:04.410Z,996.58
2022-09-30T06:39:04.419Z,996.58
2022-09-30T06:40:04.390Z,996.58
2022-09-30T06:41:04.370Z,996.61
2022-09-30T06:42:04.359Z,996.59
2022-09-30T06:43:04.351Z,996.63
2022-09-30T06:44:04.358Z,996.61
2022-09-30T06:45:04.319Z,996.66
2022-09-30T06:46:14.997Z,996.68
2022-09-30T06:47:08.606Z,996.70
2022-09-30T06:48:05.388Z,996.69
2022-09-30T06:49:12.783Z,996.70
2022-09-30T06:50:05.878Z,996.73
2022-09-30T06:51:04.279Z,996.72
2022-09-30T06:52:04.236Z,996.71
2022-09-30T06:53:04.218Z,996.67
2022-09-30T06:54:04.219Z,996.76
2022-09-30T06:55:04.189Z,996.72
2022-09-30T06:56:04.180Z,996.70
2022-09-30T06:57:04.168Z,996.73
2022-09-30T06:58:04.207Z,996.75
2022-09-30T06:59:04.158Z,996.74
2022-09-30T07:00:04.130Z,996.70
2022-09-30T07:01:04.213Z,996.71
2022-09-30T07:02:04.176Z,996.72
2022-09-30T07:03:04.124Z,996.67
2022-09-30T07:04:04.094Z,996.70
2022-09-30T07:05:04.060Z,996.68
2022-09-30T07:06:04.061Z,996.67
2022-09-30T07:07:04.037Z,996.69
2022-09-30T07:08:04.019Z,996.72
2022-09-30T07:09:04.095Z,996.71
2022-09-30T07:10:03.993Z,996.70
2022-09-30T07:11:03.978Z,996.71
2022-09-30T07:12:03.969Z,996.70
2022-09-30T07:13:03.959Z,996.72
2022-09-30T07:14:03.958Z,996.71
2022-09-30T07:15:03.931Z,996.72
2022-09-30T07:16:03.971Z,996.67
2022-09-30T07:17:03.907Z,996.67
2022-09-30T07:18:03.889Z,996.69
2022-09-30T07:19:03.891Z,996.72
2022-09-30T07:20:03.856Z,996.74
2022-09-30T07:21:03.849Z,996.72
2022-09-30T07:22:03.837Z,996.78
2022-09-30T07:23:03.818Z,996.78
2022-09-30T07:24:03.834Z,996.78
2022-09-30T07:25:03.883Z,996.82
2022-09-30T07:26:03.788Z,996.80
2022-09-30T07:27:04.027Z,996.84
2022-09-30T07:28:03.860Z,996.82
2022-09-30T07:29:03.768Z,996.85
2022-09-30T07:30:09.731Z,996.85
2022-09-30T07:31:30.749Z,996.87
2022-09-30T07:32:04.795Z,996.90
2022-09-30T07:33:03.687Z,996.88
2022-09-30T07:34:03.730Z,996.92
2022-09-30T07:35:03.657Z,996.97
2022-09-30T07:36:03.656Z,996.95
2022-09-30T07:37:03.649Z,996.93
2022-09-30T07:38:03.619Z,996.89
2022-09-30T07:39:03.658Z,996.92
2022-09-30T07:40:03.599Z,996.93
2022-09-30T07:41:03.579Z,996.92
2022-09-30T07:42:03.547Z,996.93
2022-09-30T07:43:03.558Z,996.90
2022-09-30T07:44:03.715Z,996.96
2022-09-30T07:45:03.528Z,996.98
2022-09-30T07:46:03.632Z,997.01
2022-09-30T07:47:03.485Z,997.03
2022-09-30T07:48:03.678Z,997.03
2022-09-30T07:49:03.466Z,997.02
2022-09-30T07:50:03.466Z,997.03
2022-09-30T07:51:03.451Z,997.01
2022-09-30T07:52:03.438Z,997.03
2022-09-30T07:53:03.414Z,997.04
2022-09-30T07:54:03.427Z,997.06
2022-09-30T07:55:03.387Z,997.02
2022-09-30T07:56:03.381Z,997.07
2022-09-30T07:57:11.549Z,997.06
2022-09-30T07:58:04.346Z,997.09
2022-09-30T07:59:03.356Z,997.12
2022-09-30T08:00:23.050Z,997.10
2022-09-30T08:01:04.367Z,997.11
2022-09-30T08:02:03.326Z,997.14
2022-09-30T08:03:03.286Z,997.17
2022-09-30T08:04:03.285Z,997.17
2022-09-30T08:05:03.258Z,997.17
2022-09-30T08:06:03.245Z,997.16
2022-09-30T08:07:03.243Z,997.17
2022-09-30T08:08:03.224Z,997.15
2022-09-30T08:09:03.248Z,997.14
2022-09-30T08:10:03.208Z,997.18
2022-09-30T08:11:03.184Z,997.16
2022-09-30T08:12:03.199Z,997.12
2022-09-30T08:13:05.688Z,997.12
2022-09-30T08:14:03.155Z,997.16
2022-09-30T08:15:03.137Z,997.14
2022-09-30T08:16:03.124Z,997.14
2022-09-30T08:17:03.103Z,997.18
2022-09-30T08:18:03.086Z,997.19
2022-09-30T08:19:03.097Z,997.21
2022-09-30T08:20:03.057Z,997.21
2022-09-30T08:21:03.047Z,997.22
2022-09-30T08:23:03.027Z,997.26
2022-09-30T08:24:03.065Z,997.29
2022-09-30T08:25:02.998Z,997.29
2022-09-30T08:26:02.979Z,997.32
2022-09-30T08:27:03.008Z,997.32
2022-09-30T08:28:02.966Z,997.39
2022-09-30T08:29:02.957Z,997.34
2022-09-30T08:30:04.685Z,997.31
2022-09-30T08:31:02.935Z,997.25
2022-09-30T08:32:03.009Z,997.29
2022-09-30T08:33:02.896Z,997.25
2022-09-30T08:34:02.896Z,997.23
2022-09-30T08:35:02.867Z,997.22
2022-09-30T08:36:02.846Z,997.25
2022-09-30T08:37:08.361Z,997.28
2022-09-30T08:38:03.848Z,997.26
2022-09-30T08:39:02.830Z,997.30
2022-09-30T08:40:02.797Z,997.26
2022-09-30T08:41:02.825Z,997.28
2022-09-30T08:42:13.719Z,997.27
2022-09-30T08:43:03.764Z,997.23
2022-09-30T08:44:02.755Z,997.25
2022-09-30T08:45:02.727Z,997.25
2022-09-30T08:46:02.863Z,997.28
2022-09-30T08:47:02.709Z,997.31
2022-09-30T08:48:02.735Z,997.34
2022-09-30T08:49:03.567Z,997.34
2022-09-30T08:50:03.060Z,997.37
2022-09-30T08:51:02.658Z,997.38
2022-09-30T08:52:02.675Z,997.39
2022-09-30T08:53:03.163Z,997.32
2022-09-30T08:54:02.616Z,997.39
2022-09-30T08:55:02.627Z,997.38
2022-09-30T08:56:02.870Z,997.40
2022-09-30T08:57:02.576Z,997.40
2022-09-30T08:58:02.662Z,997.40
2022-09-30T08:59:02.557Z,997.39
2022-09-30T09:00:02.548Z,997.40
2022-09-30T09:01:02.600Z,997.41
2022-09-30T09:02:02.554Z,997.41
2022-09-30T09:03:02.507Z,997.37
2022-09-30T09:04:02.483Z,997.34
2022-09-30T09:05:02.516Z,997.34
2022-09-30T09:06:02.469Z,997.39
2022-09-30T09:07:02.466Z,997.37
2022-09-30T09:08:02.436Z,997.41
2022-09-30T09:09:02.446Z,997.37
2022-09-30T09:10:02.435Z,997.42
2022-09-30T09:11:02.407Z,997.39
2022-09-30T09:12:02.386Z,997.43
2022-09-30T09:13:02.379Z,997.45
2022-09-30T09:14:02.358Z,997.41
2022-09-30T09:15:02.368Z,997.41
2022-09-30T09:16:02.337Z,997.43
2022-09-30T09:17:02.363Z,997.40
2022-09-30T09:18:22.569Z,997.38
2022-09-30T09:19:03.304Z,997.42
2022-09-30T09:20:02.288Z,997.43
2022-09-30T09:21:02.288Z,997.48
2022-09-30T09:22:02.287Z,997.50
2022-09-30T09:23:02.246Z,997.51
2022-09-30T09:24:02.296Z,997.46
2022-09-30T09:25:02.308Z,997.49
2022-09-30T09:26:02.227Z,997.48
2022-09-30T09:27:02.247Z,997.45
2022-09-30T09:28:02.290Z,997.42
2022-09-30T09:29:02.188Z,997.42
2022-09-30T09:30:02.166Z,997.43
2022-09-30T09:31:02.468Z,997.43
2022-09-30T09:32:02.236Z,997.43
2022-09-30T09:33:02.108Z,997.40
2022-09-30T09:34:02.111Z,997.42
2022-09-30T09:35:02.097Z,997.44
2022-09-30T09:36:02.070Z,997.40
2022-09-30T09:37:02.047Z,997.40
2022-09-30T09:38:02.047Z,997.37
2022-09-30T09:39:02.037Z,997.39
2022-09-30T09:40:04.329Z,997.40
2022-09-30T09:41:02.007Z,997.37
2022-09-30T09:42:02.004Z,997.36
2022-09-30T09:43:01.987Z,997.33
2022-09-30T09:44:01.956Z,997.29
2022-09-30T09:45:01.974Z,997.30
2022-09-30T09:46:01.986Z,997.27
2022-09-30T09:47:01.934Z,997.32
2022-09-30T09:48:01.908Z,997.27
2022-09-30T09:49:01.900Z,997.32
2022-09-30T09:50:01.877Z,997.31
2022-09-30T09:51:01.908Z,997.30
2022-09-30T09:52:01.866Z,997.34
2022-09-30T09:53:01.847Z,997.33
2022-09-30T09:54:01.829Z,997.34
2022-09-30T09:55:01.827Z,997.33
2022-09-30T09:56:01.846Z,997.34
2022-09-30T09:57:01.802Z,997.27
2022-09-30T09:58:01.776Z,997.30
2022-09-30T09:59:01.775Z,997.25
2022-09-30T10:00:01.751Z,997.22
2022-09-30T10:01:04.093Z,997.20
2022-09-30T10:02:01.770Z,997.20
2022-09-30T10:03:01.716Z,997.24
2022-09-30T10:04:01.688Z,997.19
2022-09-30T10:05:01.677Z,997.21
2022-09-30T10:06:01.691Z,997.21
2022-09-30T10:07:01.733Z,997.22
2022-09-30T10:08:01.636Z,997.18
2022-09-30T10:09:01.632Z,997.22
2022-09-30T10:10:01.609Z,997.18
2022-09-30T10:11:01.622Z,997.22
2022-09-30T10:12:01.583Z,997.22
2022-09-30T10:13:01.575Z,997.24
2022-09-30T10:14:01.596Z,997.22
2022-09-30T10:15:01.541Z,997.21
2022-09-30T10:16:01.610Z,997.22
2022-09-30T10:17:01.517Z,997.20
2022-09-30T10:18:01.507Z,997.24
2022-09-30T10:19:03.972Z,997.23
2022-09-30T10:20:02.466Z,997.20
2022-09-30T10:21:01.468Z,997.20
2022-09-30T10:22:01.436Z,997.23
2022-09-30T10:23:01.427Z,997.15
2022-09-30T10:24:01.416Z,997.14
2022-09-30T10:25:01.407Z,997.19
2022-09-30T10:26:01.437Z,997.20
2022-09-30T10:27:01.375Z,997.20
2022-09-30T10:28:01.459Z,997.22
2022-09-30T10:29:01.357Z,997.24
2022-09-30T10:30:01.337Z,997.23
2022-09-30T10:31:01.338Z,997.26
2022-09-30T10:32:01.363Z,997.23
2022-09-30T10:33:01.296Z,997.25
2022-09-30T10:34:01.284Z,997.23
2022-09-30T10:35:01.260Z,997.24
2022-09-30T10:36:01.247Z,997.23
2022-09-30T10:37:01.270Z,997.27
2022-09-30T10:38:01.226Z,997.27
2022-09-30T10:39:04.105Z,997.29
2022-09-30T10:40:02.199Z,997.27
2022-09-30T10:41:01.195Z,997.26
2022-09-30T10:42:01.188Z,997.28
2022-09-30T10:43:01.156Z,997.25
2022-09-30T10:44:01.170Z,997.24
2022-09-30T10:45:01.174Z,997.26
2022-09-30T10:46:21.251Z,997.24
2022-09-30T10:47:02.304Z,997.25
2022-09-30T10:48:01.097Z,997.25
2022-09-30T10:49:01.089Z,997.27
2022-09-30T10:50:01.061Z,997.31
2022-09-30T10:51:01.058Z,997.24
2022-09-30T10:52:01.088Z,997.27
2022-09-30T10:53:01.030Z,997.25
2022-09-30T10:54:01.018Z,997.21
2022-09-30T10:55:01.102Z,997.18
2022-09-30T10:56:00.988Z,997.17
2022-09-30T10:57:01.551Z,997.15
2022-09-30T10:58:00.957Z,997.15
2022-09-30T10:59:00.948Z,997.15
2022-09-30T11:00:00.937Z,997.12
2022-09-30T11:01:00.959Z,997.13
2022-09-30T11:02:02.975Z,997.11
2022-09-30T11:03:00.915Z,997.13
2022-09-30T11:04:00.893Z,997.15
2022-09-30T11:05:00.859Z,997.11
2022-09-30T11:06:00.868Z,997.10
2022-09-30T11:07:00.857Z,997.12
2022-09-30T11:08:00.817Z,997.09
2022-09-30T11:09:00.797Z,997.10
2022-09-30T11:10:00.787Z,997.09
2022-09-30T11:11:02.776Z,997.03
2022-09-30T11:12:07.901Z,997.07
2022-09-30T11:13:00.779Z,997.04
2022-09-30T11:14:00.729Z,997.03
2022-09-30T11:15:00.731Z,997.04
2022-09-30T11:16:00.713Z,997.01
2022-09-30T11:17:00.715Z,996.94
2022-09-30T11:18:00.671Z,996.96
2022-09-30T11:19:00.674Z,996.98
2022-09-30T11:20:00.654Z,996.92
2022-09-30T11:21:00.672Z,996.93
2022-09-30T11:22:00.661Z,996.98
2022-09-30T11:23:00.630Z,996.91
2022-09-30T11:24:00.589Z,996.87
2022-09-30T11:25:00.581Z,996.85
2022-09-30T11:26:00.562Z,996.86
2022-09-30T11:27:00.552Z,996.80
2022-09-30T11:28:00.600Z,996.85
2022-09-30T11:29:00.542Z,996.83
2022-09-30T11:30:00.511Z,996.87
2022-09-30T11:31:03.781Z,996.82
2022-09-30T11:32:01.536Z,996.86
2022-09-30T11:33:00.494Z,996.84
2022-09-30T11:34:00.462Z,996.80
2022-09-30T11:35:00.777Z,996.81
2022-09-30T11:36:00.451Z,996.72
2022-09-30T11:37:00.427Z,996.72
2022-09-30T11:38:00.424Z,996.71
2022-09-30T11:39:00.392Z,996.67
2022-09-30T11:40:00.428Z,996.65
2022-09-30T11:41:00.384Z,996.65
2022-09-30T11:42:00.373Z,996.67
2022-09-30T11:43:06.283Z,996.61
2022-09-30T11:44:01.326Z,996.59
2022-09-30T11:45:00.430Z,996.61
2022-09-30T11:46:00.361Z,996.61
2022-09-30T11:47:00.311Z,996.67
2022-09-30T11:48:00.305Z,996.67
2022-09-30T11:49:00.280Z,996.65
2022-09-30T11:50:00.274Z,996.67
2022-09-30T11:51:00.253Z,996.66
2022-09-30T11:52:00.233Z,996.65
2022-09-30T11:53:00.242Z,996.66
2022-09-30T11:54:00.203Z,996.62
2022-09-30T11:55:00.196Z,996.58
2022-09-30T11:56:00.193Z,996.53
2022-09-30T11:57:00.165Z,996.54
2022-09-30T11:58:05.297Z,996.55
2022-09-30T11:59:01.150Z,996.53
2022-09-30T12:00:00.159Z,996.53
2022-09-30T12:01:00.169Z,996.50
2022-09-30T12:02:00.153Z,996.52
2022-09-30T12:03:00.166Z,996.48
2022-09-30T12:04:00.080Z,996.43
2022-09-30T12:05:00.066Z,996.43
2022-09-30T12:06:00.129Z,996.43
2022-09-30T12:07:00.039Z,996.43
2022-09-30T12:08:00.037Z,996.39
2022-09-30T12:09:00.095Z,996.40
2022-09-30T12:10:00.023Z,996.41
2022-09-30T12:10:59.978Z,996.36
2022-09-30T12:11:59.974Z,996.35
2022-09-30T12:12:59.965Z,996.31
2022-09-30T12:13:59.945Z,996.30
2022-09-30T12:15:00.324Z,996.30
2022-09-30T12:15:59.946Z,996.30
2022-09-30T12:17:00.236Z,996.34
2022-09-30T12:17:59.905Z,996.33
2022-09-30T12:18:59.857Z,996.31
2022-09-30T12:19:59.855Z,996.33
2022-09-30T12:20:59.866Z,996.32
2022-09-30T12:21:59.873Z,996.32
2022-09-30T12:22:59.826Z,996.31
2022-09-30T12:23:59.806Z,996.29
2022-09-30T12:24:59.786Z,996.29
2022-09-30T12:25:59.776Z,996.27
2022-09-30T12:26:59.786Z,996.29
2022-09-30T12:27:59.823Z,996.25
2022-09-30T12:29:03.336Z,996.25